createdAt,value
2022-09-01T00:01:47.872Z,17.36
2022-09-01T00:16:50.145Z,17.20
2022-09-01T00:31:53.388Z,16.96
2022-09-01T00:46:56.647Z,16.57
2022-09-01T01:01:58.442Z,17.08
2022-09-01T01:17:00.897Z,16.76
2022-09-01T01:32:02.968Z,16.85
2022-09-01T01:47:12.942Z,17.22
2022-09-01T02:02:14.545Z,16.79
2022-09-01T02:17:16.110Z,16.53
2022-09-01T02:32:22.054Z,16.47
2022-09-01T02:47:23.601Z,16.36
2022-09-01T03:02:28.884Z,17.37
2022-09-01T03:17:30.406Z,16.04
2022-09-01T03:32:32.532Z,16.04
2022-09-01T03:47:34.980Z,16.40
2022-09-01T04:02:36.559Z,16.50
2022-09-01T04:17:56.757Z,16.71
2022-09-01T04:32:58.352Z,18.27
2022-09-01T04:48:00.802Z,18.97
2022-09-01T05:03:04.555Z,19.91
2022-09-01T05:18:10.155Z,21.96
2022-09-01T05:33:12.574Z,21.65
2022-09-01T05:48:23.144Z,21.76
2022-09-01T06:03:26.368Z,22.49
2022-09-01T06:18:28.538Z,23.72
2022-09-01T06:33:31.105Z,22.49
2022-09-01T06:48:32.645Z,24.55
2022-09-01T07:03:34.164Z,27.22
2022-09-01T07:18:37.126Z,27.06
2022-09-01T07:33:41.992Z,24.97
2022-09-01T08:04:05.174Z,28.24
2022-09-01T08:19:16.633Z,26.46
2022-09-01T08:34:18.273Z,29.36
2022-09-01T08:49:26.566Z,28.40
2022-09-01T09:04:49.263Z,28.85
2022-09-01T09:19:50.972Z,28.16
2022-09-01T09:34:52.912Z,28.90
2022-09-01T09:50:10.482Z,27.98
2022-09-01T10:05:30.572Z,28.45
2022-09-01T10:20:32.842Z,27.84
2022-09-01T10:35:39.754Z,26.13
2022-09-01T10:50:42.333Z,26.12
2022-09-01T11:06:17.208Z,28.29
2022-09-01T11:21:33.254Z,28.29
2022-09-01T11:36:49.096Z,27.60
2022-09-01T11:51:51.200Z,29.28
2022-09-01T12:07:00.800Z,28.08
2022-09-01T12:22:06.025Z,27.77
2022-09-01T12:37:16.567Z,27.38
2022-09-01T12:52:26.199Z,27.82
2022-09-01T13:07:27.906Z,29.67
2022-09-01T13:22:29.434Z,28.67
2022-09-01T13:37:31.020Z,27.88
2022-09-01T13:52:33.101Z,26.94
2022-09-01T14:07:34.688Z,26.54
2022-09-01T14:22:38.464Z,26.56
2022-09-01T14:37:40.561Z,27.22
2022-09-01T14:52:42.861Z,26.60
2022-09-01T15:07:44.835Z,26.73
2022-09-01T15:22:47.098Z,26.01
2022-09-01T15:37:49.957Z,25.79
2022-09-01T15:52:55.021Z,25.42
2022-09-01T16:07:57.026Z,24.26
2022-09-01T16:23:07.745Z,22.26
2022-09-01T16:38:27.881Z,22.09
2022-09-01T16:53:48.311Z,22.35
2022-09-01T17:08:52.709Z,22.13
2022-09-01T17:24:00.141Z,21.76
2022-09-01T17:39:21.955Z,21.54
2022-09-01T17:54:31.055Z,21.47
2022-09-01T18:09:40.729Z,21.65
2022-09-01T18:25:01.072Z,22.36
2022-09-01T18:40:09.570Z,21.12
2022-09-01T18:55:20.803Z,20.76
2022-09-01T19:10:25.395Z,20.90
2022-09-01T19:25:37.099Z,21.05
2022-09-01T19:40:39.541Z,20.46
2022-09-01T19:56:02.186Z,20.50
2022-09-01T20:11:07.721Z,20.26
2022-09-01T20:26:12.283Z,20.18
2022-09-01T20:41:26.161Z,21.01
2022-09-01T20:56:30.915Z,21.00
2022-09-01T21:11:48.092Z,19.97
2022-09-01T21:26:49.603Z,21.11
2022-09-01T21:41:51.411Z,19.82
2022-09-01T21:56:53.494Z,20.56
2022-09-01T22:16:08.226Z,22.00
2022-09-01T22:31:13.574Z,21.60
2022-09-01T22:46:16.067Z,21.25
2022-09-01T23:01:22.118Z,20.95
2022-09-01T23:16:24.729Z,20.88
2022-09-01T23:31:28.037Z,20.80
2022-09-01T23:46:31.644Z,20.79
